ADDS METAR Data INFO
IDs: Format: Raw Decoded Include TAF

Data at: 2227 UTC 24 Jun 2018

KGCN 242154Z 26013G20KT 10SM CLR 31/M03 A3014 RMK AO2 SLP104 T03111028
KGCN 242054Z 25013G21KT 210V300 10SM CLR 31/M02 A3015 RMK AO2 SLP108 T03061022 58013
KGCN 241954Z 22013G23KT 10SM CLR 30/M03 A3018 RMK AO2 SLP112 T03001033
KGCN 241854Z 25010G17KT 210V270 10SM CLR 28/M03 A3019 RMK AO2 SLP117 T02831028
KGCN 241754Z 25008KT 10SM CLR 27/M01 A3020 RMK AO2 SLP112 T02671011 10272 20061 51002
KGCN 241654Z 25010G19KT 210V270 10SM CLR 24/M01 A3020 RMK AO2 SLP114 T02441011
KGCN 241554Z AUTO 26009G15KT 10SM CLR 23/00 A3020 RMK AO2 SLP109 T02280000
KGCN 241454Z AUTO 22008KT 10SM CLR 21/02 A3019 RMK AO2 SLP107 T02110017 51015
KGCN 241354Z AUTO 06004KT 10SM CLR 14/01 A3018 RMK AO2 SLP112 T01440011
KGCN 241254Z AUTO 00000KT 10SM CLR 08/M01 A3016 RMK AO2 SLP116 T00781011
KGCN 241154Z AUTO 06003KT 10SM CLR 07/M02 A3014 RMK AO2 SLP108 T00671022 10189 20061 53004
KGCN 241054Z AUTO 00000KT 10SM CLR 07/M03 A3012 RMK AO2 SLP096 T00721028
KGCN 240954Z AUTO 00000KT 10SM CLR 09/M03 A3012 RMK AO2 SLP094 T00891033
KGCN 240854Z AUTO 06003KT 10SM CLR 09/M03 A3012 RMK AO2 SLP092 T00891033 56005
KGCN 240754Z AUTO 06004KT 10SM CLR 12/M04 A3012 RMK AO2 SLP088 T01171039
KGCN 240654Z AUTO 00000KT 10SM CLR 13/M04 A3013 RMK AO2 SLP089 T01331044 403330044
KGCN 240554Z AUTO 00000KT 10SM CLR 19/M04 A3014 RMK AO2 SLP083 T01891039 10311 20183 51015
KGCN 240454Z AUTO 23006KT 10SM CLR 19/M04 A3013 RMK AO2 SLP079 T01941044
KGCN 240354Z AUTO 23009KT 10SM CLR 23/M05 A3011 RMK AO2 SLP067 T02331050
KGCN 240254Z AUTO 24013G19KT 10SM CLR 26/M06 A3009 RMK AO2 SLP060 T02561056 53010
KGCN 240154Z 24013G22KT 10SM CLR 28/M06 A3007 RMK AO2 SLP069 T02781061
KGCN 240054Z 25012G25KT 10SM CLR 30/M07 A3005 RMK AO2 PK WND 23029/0003 SLP075 T03001067
KGCN 232354Z 25018G25KT 10SM CLR 31/M07 A3005 RMK AO2 PK WND 22030/2339 SLP078 T03111067 10333 20294 58005
KGCN 232254Z 24016G25KT 10SM CLR 32/M07 A3007 RMK AO2 PK WND 25031/2206 SLP077 T03221072
KGCN 232154Z 23014G26KT 10SM CLR 32/M08 A3007 RMK AO2 PK WND 22030/2132 SLP078 T03171078
KGCN 232054Z 24016G27KT 10SM CLR 33/M09 A3007 RMK AO2 PK WND 22027/2042 SLP072 T03331094 56017
KGCN 231954Z 24015G25KT 10SM CLR 33/M11 A3009 RMK AO2 PK WND 22032/1922 SLP084 T03281111
KGCN 231854Z 24016G23KT 10SM CLR 32/M11 A3011 RMK AO2 SLP084 T03221111
KGCN 231754Z 26010G24KT 200V300 10SM CLR 30/M10 A3013 RMK AO2 SLP093 T03001100 10306 20056 58004
KGCN 231654Z 23012G16KT 10SM CLR 29/M10 A3014 RMK AO2 SLP096 T02891100
KGCN 231554Z 25008KT 10SM CLR 28/M09 A3014 RMK AO2 SLP097 T02781094
KGCN 231454Z 22005KT 10SM CLR 26/M06 A3015 RMK AO2 SLP088 T02561061 51006
KGCN 231354Z 00000KT 10SM CLR 16/M02 A3014 RMK AO2 SLP087 T01611022
KGCN 231254Z 00000KT 10SM CLR 08/M03 A3013 RMK AO2 SLP101 T00831033
KGCN 231154Z AUTO 00000KT 10SM CLR 07/M04 A3012 RMK AO2 SLP100 T00671039 10133 20044 53001
KGCN 231054Z AUTO 00000KT 10SM CLR 07/M04 A3011 RMK AO2 SLP097 T00721039